Machelen, Belgium
Current Conditions -  °F | °C
As of 3:20 AM on Monday 24 Nov 2014 (Local Time) from EBBR Reporting Station
Light Rain Light Rain  
Wind Chill:   Ceiling: 1600
Heat Index:   Visibility: 6mi
Dew Point:   Wind: 7mph
Humidity: 87%   Direction: 320°NW
Pressure: 30.12"   Gusts: NA
Location:  50.91°N, 4.44°E
Report Text: EBBR 240220Z 32006KT 290V350 9999 -RA SCT008 BKN016 09/07 Q1020 TEMPO 4500 RADZ BKN008
Loading
Personal Weather Stations






























Interactive Weather Map New forecast layout! Learn more

10-Day Weather Forecast

Advertisements
Track Severe Weather on mobile